sensor_id;sensor_type;location;lat;lon;timestamp;pressure;altitude;pressure_sealevel;temperature;humidity
73245;BME280;61460;41.158;-73.238;2022-08-04T00:01:44;100635.81;;;27.09;43.32
73245;BME280;61460;41.158;-73.238;2022-08-04T00:04:13;100631.54;;;27.25;43.35
73245;BME280;61460;41.158;-73.238;2022-08-04T00:06:50;100630.89;;;26.95;44.23
73245;BME280;61460;41.158;-73.238;2022-08-04T00:09:15;100635.83;;;27.25;44.45
73245;BME280;61460;41.158;-73.238;2022-08-04T00:11:44;100636.82;;;27.48;43.83
73245;BME280;61460;41.158;-73.238;2022-08-04T00:14:15;100637.82;;;27.58;44.16
73245;BME280;61460;41.158;-73.238;2022-08-04T00:16:43;100644.32;;;27.67;44.56
73245;BME280;61460;41.158;-73.238;2022-08-04T00:19:17;100647.11;;;27.73;44.86
73245;BME280;61460;41.158;-73.238;2022-08-04T00:21:49;100641.16;;;27.83;45.10
73245;BME280;61460;41.158;-73.238;2022-08-04T00:24:15;100644.47;;;27.90;45.08
73245;BME280;61460;41.158;-73.238;2022-08-04T00:26:45;100647.86;;;27.93;45.29
73245;BME280;61460;41.158;-73.238;2022-08-04T00:29:16;100662.71;;;27.97;45.19
73245;BME280;61460;41.158;-73.238;2022-08-04T00:31:47;100672.12;;;28.07;45.49
73245;BME280;61460;41.158;-73.238;2022-08-04T00:34:17;100673.28;;;28.14;45.57
73245;BME280;61460;41.158;-73.238;2022-08-04T00:36:47;100675.78;;;28.17;45.74
73245;BME280;61460;41.158;-73.238;2022-08-04T00:39:18;100684.99;;;28.18;46.11
73245;BME280;61460;41.158;-73.238;2022-08-04T00:41:59;100697.59;;;28.29;45.86
73245;BME280;61460;41.158;-73.238;2022-08-04T00:44:28;100700.81;;;28.32;45.21
73245;BME280;61460;41.158;-73.238;2022-08-04T00:52:00;100714.14;;;28.43;44.72
73245;BME280;61460;41.158;-73.238;2022-08-04T00:54:29;100714.97;;;28.46;44.89
73245;BME280;61460;41.158;-73.238;2022-08-04T00:57:05;100708.79;;;28.54;45.30
73245;BME280;61460;41.158;-73.238;2022-08-04T00:59:36;100717.18;;;28.54;45.08
73245;BME280;61460;41.158;-73.238;2022-08-04T01:01:59;100725.83;;;28.63;45.06
73245;BME280;61460;41.158;-73.238;2022-08-04T01:04:33;100737.76;;;28.60;44.93
73245;BME280;61460;41.158;-73.238;2022-08-04T01:07:09;100748.14;;;28.65;45.47
73245;BME280;61460;41.158;-73.238;2022-08-04T01:09:34;100759.04;;;28.69;45.68
73245;BME280;61460;41.158;-73.238;2022-08-04T01:12:07;100765.96;;;28.74;45.75
73245;BME280;61460;41.158;-73.238;2022-08-04T01:14:39;100769.14;;;28.74;45.69
73245;BME280;61460;41.158;-73.238;2022-08-04T01:17:02;100772.96;;;28.82;45.96
73245;BME280;61460;41.158;-73.238;2022-08-04T01:22:12;100768.53;;;28.21;46.07
73245;BME280;61460;41.158;-73.238;2022-08-04T01:27:02;100773.09;;;27.77;42.57
73245;BME280;61460;41.158;-73.238;2022-08-04T01:29:33;100781.07;;;27.57;41.12
73245;BME280;61460;41.158;-73.238;2022-08-04T01:32:03;100788.25;;;27.33;40.10
73245;BME280;61460;41.158;-73.238;2022-08-04T01:34:35;100787.77;;;27.18;39.40
73245;BME280;61460;41.158;-73.238;2022-08-04T01:37:10;100785.62;;;27.06;38.72
73245;BME280;61460;41.158;-73.238;2022-08-04T01:39:37;100795.22;;;26.94;37.98
73245;BME280;61460;41.158;-73.238;2022-08-04T01:42:05;100797.32;;;26.79;37.62
73245;BME280;61460;41.158;-73.238;2022-08-04T01:44:36;100797.93;;;26.59;37.45
73245;BME280;61460;41.158;-73.238;2022-08-04T01:47:06;100798.24;;;26.45;36.58
73245;BME280;61460;41.158;-73.238;2022-08-04T01:49:38;100801.37;;;26.50;41.27
73245;BME280;61460;41.158;-73.238;2022-08-04T01:52:08;100799.48;;;26.48;41.00
73245;BME280;61460;41.158;-73.238;2022-08-04T01:54:41;100796.83;;;26.40;39.48
73245;BME280;61460;41.158;-73.238;2022-08-04T01:57:09;100801.16;;;26.32;39.76
73245;BME280;61460;41.158;-73.238;2022-08-04T01:59:38;100801.99;;;26.49;42.67
73245;BME280;61460;41.158;-73.238;2022-08-04T02:02:08;100806.90;;;26.38;40.73
73245;BME280;61460;41.158;-73.238;2022-08-04T02:04:41;100806.46;;;26.20;39.35
73245;BME280;61460;41.158;-73.238;2022-08-04T02:07:20;100808.95;;;26.31;41.99
73245;BME280;61460;41.158;-73.238;2022-08-04T02:09:46;100811.92;;;26.39;42.45
73245;BME280;61460;41.158;-73.238;2022-08-04T02:12:18;100824.60;;;26.38;40.57
73245;BME280;61460;41.158;-73.238;2022-08-04T02:14:47;100826.63;;;26.14;39.78
73245;BME280;61460;41.158;-73.238;2022-08-04T02:17:13;100831.47;;;26.22;43.62
73245;BME280;61460;41.158;-73.238;2022-08-04T02:20:02;100829.45;;;26.32;41.79
73245;BME280;61460;41.158;-73.238;2022-08-04T02:22:17;100826.88;;;26.26;40.41
73245;BME280;61460;41.158;-73.238;2022-08-04T02:24:49;100826.15;;;26.11;39.55
73245;BME280;61460;41.158;-73.238;2022-08-04T02:27:16;100827.93;;;26.11;38.82
73245;BME280;61460;41.158;-73.238;2022-08-04T02:29:49;100829.93;;;26.17;43.35
73245;BME280;61460;41.158;-73.238;2022-08-04T02:32:24;100829.64;;;26.13;41.84
73245;BME280;61460;41.158;-73.238;2022-08-04T02:34:50;100828.07;;;26.01;40.22
73245;BME280;61460;41.158;-73.238;2022-08-04T02:37:20;100820.18;;;26.04;40.48
73245;BME280;61460;41.158;-73.238;2022-08-04T02:39:52;100817.91;;;26.11;43.84
73245;BME280;61460;41.158;-73.238;2022-08-04T02:42:19;100820.03;;;26.05;41.86
73245;BME280;61460;41.158;-73.238;2022-08-04T02:44:50;100821.13;;;25.93;40.47
73245;BME280;61460;41.158;-73.238;2022-08-04T02:47:20;100820.20;;;25.90;40.53
73245;BME280;61460;41.158;-73.238;2022-08-04T02:49:51;100827.89;;;26.02;44.06
73245;BME280;61460;41.158;-73.238;2022-08-04T02:52:23;100826.12;;;25.96;42.30
73245;BME280;61460;41.158;-73.238;2022-08-04T02:54:54;100829.62;;;25.81;40.93
73245;BME280;61460;41.158;-73.238;2022-08-04T02:57:26;100834.32;;;25.78;40.12
73245;BME280;61460;41.158;-73.238;2022-08-04T03:00:03;100835.47;;;25.88;44.62
73245;BME280;61460;41.158;-73.238;2022-08-04T03:02:30;100842.91;;;25.82;43.47
73245;BME280;61460;41.158;-73.238;2022-08-04T03:04:59;100846.07;;;25.76;41.66
73245;BME280;61460;41.158;-73.238;2022-08-04T03:17:42;100864.96;;;25.75;44.82
73245;BME280;61460;41.158;-73.238;2022-08-04T03:20:12;100859.28;;;25.79;44.69
73245;BME280;61460;41.158;-73.238;2022-08-04T03:27:42;100860.15;;;25.77;46.05
73245;BME280;61460;41.158;-73.238;2022-08-04T03:30:05;100858.28;;;25.73;44.18
73245;BME280;61460;41.158;-73.238;2022-08-04T03:32:54;100856.69;;;25.61;42.13
73245;BME280;61460;41.158;-73.238;2022-08-04T03:35:15;100859.80;;;25.67;43.90
73245;BME280;61460;41.158;-73.238;2022-08-04T03:37:49;100847.63;;;25.74;44.81
73245;BME280;61460;41.158;-73.238;2022-08-04T03:47:50;100855.97;;;25.68;43.45
73245;BME280;61460;41.158;-73.238;2022-08-04T03:52:46;100858.43;;;25.57;42.73
73245;BME280;61460;41.158;-73.238;2022-08-04T03:57:48;100863.36;;;25.61;42.61
73245;BME280;61460;41.158;-73.238;2022-08-04T04:00:13;100859.76;;;25.39;41.18
73245;BME280;61460;41.158;-73.238;2022-08-04T04:02:54;100862.26;;;25.56;44.30
73245;BME280;61460;41.158;-73.238;2022-08-04T04:10:23;100861.94;;;25.43;42.04
73245;BME280;61460;41.158;-73.238;2022-08-04T04:12:51;100865.79;;;25.55;45.25
73245;BME280;61460;41.158;-73.238;2022-08-04T04:15:21;100869.58;;;25.56;43.23
73245;BME280;61460;41.158;-73.238;2022-08-04T04:18:01;100874.50;;;25.40;41.66
73245;BME280;61460;41.158;-73.238;2022-08-04T04:20:24;100870.03;;;25.46;44.05
73245;BME280;61460;41.158;-73.238;2022-08-04T04:22:53;100871.30;;;25.52;44.87
73245;BME280;61460;41.158;-73.238;2022-08-04T04:25:27;100868.92;;;25.43;43.00
73245;BME280;61460;41.158;-73.238;2022-08-04T04:30:20;100870.29;;;25.47;45.80
73245;BME280;61460;41.158;-73.238;2022-08-04T04:32:54;100865.49;;;25.47;44.49
73245;BME280;61460;41.158;-73.238;2022-08-04T04:35:26;100860.98;;;25.32;42.51
73245;BME280;61460;41.158;-73.238;2022-08-04T04:38:05;100866.57;;;25.38;43.55
73245;BME280;61460;41.158;-73.238;2022-08-04T04:40:30;100863.17;;;25.38;45.85
73245;BME280;61460;41.158;-73.238;2022-08-04T04:43:01;100853.15;;;25.32;43.36
73245;BME280;61460;41.158;-73.238;2022-08-04T04:45:24;100845.72;;;25.26;41.37
73245;BME280;61460;41.158;-73.238;2022-08-04T04:47:56;100852.93;;;25.19;44.68
73245;BME280;61460;41.158;-73.238;2022-08-04T04:50:30;100855.11;;;25.59;45.19
73245;BME280;61460;41.158;-73.238;2022-08-04T04:52:57;100856.97;;;25.76;44.89
73245;BME280;61460;41.158;-73.238;2022-08-04T04:55:26;100848.43;;;25.91;44.67
73245;BME280;61460;41.158;-73.238;2022-08-04T04:57:57;100844.23;;;26.10;44.27
73245;BME280;61460;41.158;-73.238;2022-08-04T05:00:32;100845.89;;;26.10;47.47
73245;BME280;61460;41.158;-73.238;2022-08-04T05:05:36;100841.63;;;25.71;42.68
73245;BME280;61460;41.158;-73.238;2022-08-04T05:08:06;100832.81;;;25.69;44.46
73245;BME280;61460;41.158;-73.238;2022-08-04T05:10:37;100831.21;;;25.77;45.95
73245;BME280;61460;41.158;-73.238;2022-08-04T05:13:10;100840.58;;;25.53;43.74
73245;BME280;61460;41.158;-73.238;2022-08-04T05:15:30;100840.03;;;25.37;41.38
73245;BME280;61460;41.158;-73.238;2022-08-04T05:18:00;100836.68;;;25.52;44.35
73245;BME280;61460;41.158;-73.238;2022-08-04T05:20:34;100829.68;;;25.72;44.93
73245;BME280;61460;41.158;-73.238;2022-08-04T05:23:01;100831.45;;;25.97;44.52
73245;BME280;61460;41.158;-73.238;2022-08-04T05:25:34;100833.10;;;26.00;44.35
73245;BME280;61460;41.158;-73.238;2022-08-04T05:28:04;100838.02;;;26.22;43.89
73245;BME280;61460;41.158;-73.238;2022-08-04T05:30:35;100837.53;;;26.23;46.59
73245;BME280;61460;41.158;-73.238;2022-08-04T05:33:05;100832.15;;;25.93;44.40
73245;BME280;61460;41.158;-73.238;2022-08-04T05:35:35;100834.31;;;25.78;41.85
73245;BME280;61460;41.158;-73.238;2022-08-04T05:38:03;100837.98;;;25.67;44.22
73245;BME280;61460;41.158;-73.238;2022-08-04T05:40:34;100828.29;;;25.88;45.19
73245;BME280;61460;41.158;-73.238;2022-08-04T05:43:04;100820.02;;;26.06;45.20
73245;BME280;61460;41.158;-73.238;2022-08-04T05:45:35;100822.50;;;26.16;44.68
73245;BME280;61460;41.158;-73.238;2022-08-04T05:48:09;100823.71;;;26.40;44.18
73245;BME280;61460;41.158;-73.238;2022-08-04T05:50:36;100825.91;;;26.28;47.37
73245;BME280;61460;41.158;-73.238;2022-08-04T05:53:09;100825.33;;;26.14;45.53
73245;BME280;61460;41.158;-73.238;2022-08-04T05:55:37;100823.28;;;25.90;42.73
73245;BME280;61460;41.158;-73.238;2022-08-04T05:58:08;100815.29;;;25.77;43.76
73245;BME280;61460;41.158;-73.238;2022-08-04T06:00:40;100813.36;;;25.79;46.11
73245;BME280;61460;41.158;-73.238;2022-08-04T06:03:09;100812.40;;;25.92;45.88
73245;BME280;61460;41.158;-73.238;2022-08-04T06:05:41;100809.79;;;26.12;45.32
73245;BME280;61460;41.158;-73.238;2022-08-04T06:08:10;100812.18;;;26.34;44.65
73245;BME280;61460;41.158;-73.238;2022-08-04T06:10:41;100808.09;;;26.33;46.71
73245;BME280;61460;41.158;-73.238;2022-08-04T06:13:13;100804.46;;;26.20;45.64
73245;BME280;61460;41.158;-73.238;2022-08-04T06:15:42;100805.12;;;25.91;43.49
73245;BME280;61460;41.158;-73.238;2022-08-04T06:18:12;100807.99;;;25.77;43.12
73245;BME280;61460;41.158;-73.238;2022-08-04T06:20:43;100806.88;;;25.87;46.53
73245;BME280;61460;41.158;-73.238;2022-08-04T06:23:14;100803.72;;;25.69;45.32
73245;BME280;61460;41.158;-73.238;2022-08-04T06:25:47;100813.66;;;25.54;42.94
73245;BME280;61460;41.158;-73.238;2022-08-04T06:28:14;100818.95;;;25.46;43.24
73245;BME280;61460;41.158;-73.238;2022-08-04T06:30:45;100820.79;;;25.57;46.33
73245;BME280;61460;41.158;-73.238;2022-08-04T06:33:15;100819.94;;;25.77;46.14
73245;BME280;61460;41.158;-73.238;2022-08-04T06:35:45;100819.99;;;25.99;45.32
73245;BME280;61460;41.158;-73.238;2022-08-04T06:38:16;100824.66;;;26.20;44.91
73245;BME280;61460;41.158;-73.238;2022-08-04T06:40:47;100827.07;;;26.20;46.90
73245;BME280;61460;41.158;-73.238;2022-08-04T06:43:18;100830.33;;;26.11;47.15
73245;BME280;61460;41.158;-73.238;2022-08-04T06:45:48;100824.32;;;25.85;44.66
73245;BME280;61460;41.158;-73.238;2022-08-04T06:48:19;100826.85;;;25.63;43.54
73245;BME280;61460;41.158;-73.238;2022-08-04T06:50:50;100826.76;;;25.76;46.57
73245;BME280;61460;41.158;-73.238;2022-08-04T06:53:20;100826.98;;;25.91;46.82
73245;BME280;61460;41.158;-73.238;2022-08-04T06:55:51;100825.22;;;26.03;46.25
73245;BME280;61460;41.158;-73.238;2022-08-04T06:58:22;100817.20;;;26.12;46.05
73245;BME280;61460;41.158;-73.238;2022-08-04T07:00:53;100820.13;;;26.28;46.78
73245;BME280;61460;41.158;-73.238;2022-08-04T07:03:23;100815.12;;;26.06;48.18
73245;BME280;61460;41.158;-73.238;2022-08-04T07:05:54;100810.62;;;25.79;45.33
73245;BME280;61460;41.158;-73.238;2022-08-04T07:08:24;100806.30;;;25.69;42.94
73245;BME280;61460;41.158;-73.238;2022-08-04T07:10:56;100812.28;;;25.65;46.65
73245;BME280;61460;41.158;-73.238;2022-08-04T07:13:26;100820.05;;;25.86;46.98
73245;BME280;61460;41.158;-73.238;2022-08-04T07:15:57;100822.88;;;26.00;46.50
73245;BME280;61460;41.158;-73.238;2022-08-04T07:18:26;100824.36;;;26.14;46.10
73245;BME280;61460;41.158;-73.238;2022-08-04T07:20:57;100824.83;;;26.30;48.02
73245;BME280;61460;41.158;-73.238;2022-08-04T07:23:27;100823.41;;;26.17;48.79
73245;BME280;61460;41.158;-73.238;2022-08-04T07:25:58;100825.42;;;25.92;46.04
73245;BME280;61460;41.158;-73.238;2022-08-04T07:28:29;100824.41;;;25.84;43.41
73245;BME280;61460;41.158;-73.238;2022-08-04T07:31:01;100827.08;;;25.73;46.48
73245;BME280;61460;41.158;-73.238;2022-08-04T07:33:30;100822.25;;;25.87;47.33
73245;BME280;61460;41.158;-73.238;2022-08-04T07:36:00;100822.82;;;25.87;47.50
73245;BME280;61460;41.158;-73.238;2022-08-04T07:38:32;100824.85;;;26.19;46.42
73245;BME280;61460;41.158;-73.238;2022-08-04T07:41:02;100823.39;;;26.36;45.92
73245;BME280;61460;41.158;-73.238;2022-08-04T07:43:32;100824.71;;;26.27;48.70
73245;BME280;61460;41.158;-73.238;2022-08-04T07:46:03;100820.06;;;26.01;46.20
73245;BME280;61460;41.158;-73.238;2022-08-04T07:48:33;100817.97;;;25.80;43.71
73245;BME280;61460;41.158;-73.238;2022-08-04T07:51:04;100817.83;;;25.74;45.52
73245;BME280;61460;41.158;-73.238;2022-08-04T07:53:35;100815.81;;;25.84;46.82
73245;BME280;61460;41.158;-73.238;2022-08-04T07:56:06;100820.73;;;26.02;46.78
73245;BME280;61460;41.158;-73.238;2022-08-04T07:58:36;100821.50;;;26.19;46.08
73245;BME280;61460;41.158;-73.238;2022-08-04T08:01:08;100823.15;;;26.34;45.78
73245;BME280;61460;41.158;-73.238;2022-08-04T08:03:38;100825.40;;;26.25;48.29
73245;BME280;61460;41.158;-73.238;2022-08-04T08:06:08;100824.74;;;26.05;46.36
73245;BME280;61460;41.158;-73.238;2022-08-04T08:08:38;100827.18;;;25.83;43.81
73245;BME280;61460;41.158;-73.238;2022-08-04T08:11:09;100820.40;;;25.64;44.38
73245;BME280;61460;41.158;-73.238;2022-08-04T08:13:40;100816.07;;;25.76;46.81
73245;BME280;61460;41.158;-73.238;2022-08-04T08:16:10;100814.42;;;25.93;46.80
73245;BME280;61460;41.158;-73.238;2022-08-04T08:18:41;100820.53;;;26.09;46.15
73245;BME280;61460;41.158;-73.238;2022-08-04T08:21:12;100817.39;;;26.26;45.71
73245;BME280;61460;41.158;-73.238;2022-08-04T08:23:42;100821.53;;;26.25;47.39
73245;BME280;61460;41.158;-73.238;2022-08-04T08:26:13;100820.17;;;26.08;47.28
73245;BME280;61460;41.158;-73.238;2022-08-04T08:28:44;100820.81;;;25.83;44.63
73245;BME280;61460;41.158;-73.238;2022-08-04T08:31:14;100825.89;;;25.77;43.57
73245;BME280;61460;41.158;-73.238;2022-08-04T08:33:46;100826.84;;;25.69;46.91
73245;BME280;61460;41.158;-73.238;2022-08-04T08:36:21;100822.38;;;25.90;46.66
73245;BME280;61460;41.158;-73.238;2022-08-04T08:38:54;100826.33;;;25.98;46.58
73245;BME280;61460;41.158;-73.238;2022-08-04T08:41:27;100831.34;;;26.05;46.20
73245;BME280;61460;41.158;-73.238;2022-08-04T08:44:00;100827.18;;;26.15;45.95
73245;BME280;61460;41.158;-73.238;2022-08-04T08:49:01;100828.58;;;25.85;45.04
73245;BME280;61460;41.158;-73.238;2022-08-04T08:51:28;100831.43;;;25.61;43.13
73245;BME280;61460;41.158;-73.238;2022-08-04T08:54:03;100835.90;;;25.63;46.46
73245;BME280;61460;41.158;-73.238;2022-08-04T08:56:31;100835.90;;;25.74;47.11
73245;BME280;61460;41.158;-73.238;2022-08-04T08:59:07;100834.82;;;25.87;46.81
73245;BME280;61460;41.158;-73.238;2022-08-04T09:01:36;100837.47;;;26.04;46.41
73245;BME280;61460;41.158;-73.238;2022-08-04T09:06:36;100844.72;;;26.02;48.55
73245;BME280;61460;41.158;-73.238;2022-08-04T09:09:05;100848.76;;;25.76;45.99
73245;BME280;61460;41.158;-73.238;2022-08-04T09:11:26;100848.55;;;25.57;43.69
73245;BME280;61460;41.158;-73.238;2022-08-04T09:13:56;100850.36;;;25.54;46.47
73245;BME280;61460;41.158;-73.238;2022-08-04T09:16:33;100849.53;;;25.68;47.26
73245;BME280;61460;41.158;-73.238;2022-08-04T09:19:01;100848.80;;;25.79;47.35
73245;BME280;61460;41.158;-73.238;2022-08-04T09:21:32;100849.72;;;25.97;46.59
73245;BME280;61460;41.158;-73.238;2022-08-04T09:24:05;100851.97;;;26.14;46.17
73245;BME280;61460;41.158;-73.238;2022-08-04T09:26:31;100859.33;;;26.09;49.20
73245;BME280;61460;41.158;-73.238;2022-08-04T09:29:04;100852.05;;;25.89;46.86
73245;BME280;61460;41.158;-73.238;2022-08-04T09:31:32;100856.34;;;25.63;44.54
73245;BME280;61460;41.158;-73.238;2022-08-04T09:34:08;100855.18;;;25.54;45.80
73245;BME280;61460;41.158;-73.238;2022-08-04T09:36:34;100859.65;;;25.64;47.32
73245;BME280;61460;41.158;-73.238;2022-08-04T09:39:09;100858.28;;;25.86;47.14
73245;BME280;61460;41.158;-73.238;2022-08-04T09:41:37;100858.41;;;25.95;47.29
73245;BME280;61460;41.158;-73.238;2022-08-04T09:44:10;100863.16;;;25.98;46.71
73245;BME280;61460;41.158;-73.238;2022-08-04T09:46:38;100863.58;;;25.99;48.67
73245;BME280;61460;41.158;-73.238;2022-08-04T09:49:06;100858.65;;;25.91;47.41
73245;BME280;61460;41.158;-73.238;2022-08-04T09:51:45;100868.15;;;25.68;45.00
73245;BME280;61460;41.158;-73.238;2022-08-04T09:54:08;100872.62;;;25.50;44.97
73245;BME280;61460;41.158;-73.238;2022-08-04T09:56:40;100874.40;;;25.47;47.77
73245;BME280;61460;41.158;-73.238;2022-08-04T09:59:16;100873.88;;;25.63;47.76
73245;BME280;61460;41.158;-73.238;2022-08-04T10:01:37;100883.92;;;25.83;47.35
73245;BME280;61460;41.158;-73.238;2022-08-04T10:04:08;100892.37;;;25.94;46.92
73245;BME280;61460;41.158;-73.238;2022-08-04T10:06:50;100888.09;;;26.05;47.74
73245;BME280;61460;41.158;-73.238;2022-08-04T10:09:16;100890.05;;;26.01;48.12
73245;BME280;61460;41.158;-73.238;2022-08-04T10:11:50;100895.11;;;25.71;45.98
73245;BME280;61460;41.158;-73.238;2022-08-04T10:14:26;100897.93;;;25.43;44.30
73245;BME280;61460;41.158;-73.238;2022-08-04T10:16:46;100900.42;;;25.43;47.76
73245;BME280;61460;41.158;-73.238;2022-08-04T10:19:22;100898.83;;;25.61;47.67
73245;BME280;61460;41.158;-73.238;2022-08-04T10:21:48;100901.43;;;25.87;47.30
73245;BME280;61460;41.158;-73.238;2022-08-04T10:24:20;100908.07;;;25.87;47.09
73245;BME280;61460;41.158;-73.238;2022-08-04T10:26:46;100916.04;;;25.92;48.39
73245;BME280;61460;41.158;-73.238;2022-08-04T10:29:14;100915.54;;;25.97;48.82
73245;BME280;61460;41.158;-73.238;2022-08-04T10:31:45;100916.87;;;25.69;46.38
73245;BME280;61460;41.158;-73.238;2022-08-04T10:34:13;100916.00;;;25.39;44.38
73245;BME280;61460;41.158;-73.238;2022-08-04T10:36:50;100913.18;;;25.47;46.67
73245;BME280;61460;41.158;-73.238;2022-08-04T10:39:15;100912.15;;;25.62;47.33
73245;BME280;61460;41.158;-73.238;2022-08-04T10:41:51;100916.60;;;25.72;47.36
73245;BME280;61460;41.158;-73.238;2022-08-04T10:44:19;100919.48;;;25.78;47.43
73245;BME280;61460;41.158;-73.238;2022-08-04T10:46:48;100925.22;;;25.90;46.90
73245;BME280;61460;41.158;-73.238;2022-08-04T10:49:21;100920.74;;;25.95;49.36
73245;BME280;61460;41.158;-73.238;2022-08-04T10:51:49;100923.49;;;25.84;46.89
73245;BME280;61460;41.158;-73.238;2022-08-04T10:54:20;100925.58;;;25.63;44.50
73245;BME280;61460;41.158;-73.238;2022-08-04T10:56:49;100931.40;;;25.49;45.95
73245;BME280;61460;41.158;-73.238;2022-08-04T10:59:23;100937.48;;;25.50;47.79
73245;BME280;61460;41.158;-73.238;2022-08-04T11:01:48;100941.65;;;25.74;47.44
73245;BME280;61460;41.158;-73.238;2022-08-04T11:04:24;100942.28;;;25.75;47.87
73245;BME280;61460;41.158;-73.238;2022-08-04T11:06:48;100938.84;;;26.00;47.16
73245;BME280;61460;41.158;-73.238;2022-08-04T11:09:19;100941.72;;;26.05;49.02
73245;BME280;61460;41.158;-73.238;2022-08-04T11:11:53;100943.35;;;25.95;47.52
73245;BME280;61460;41.158;-73.238;2022-08-04T11:14:22;100936.71;;;25.62;45.48
73245;BME280;61460;41.158;-73.238;2022-08-04T11:16:52;100931.71;;;25.49;45.49
73245;BME280;61460;41.158;-73.238;2022-08-04T11:19:32;100932.41;;;25.51;48.20
73245;BME280;61460;41.158;-73.238;2022-08-04T11:21:55;100932.11;;;25.46;45.84
73245;BME280;61460;41.158;-73.238;2022-08-04T11:24:25;100928.06;;;25.30;43.56
73245;BME280;61460;41.158;-73.238;2022-08-04T11:26:55;100936.00;;;25.26;45.04
73245;BME280;61460;41.158;-73.238;2022-08-04T11:29:25;100938.46;;;25.34;46.79
73245;BME280;61460;41.158;-73.238;2022-08-04T11:31:53;100939.36;;;25.45;46.66
73245;BME280;61460;41.158;-73.238;2022-08-04T11:34:23;100944.52;;;25.77;46.01
73245;BME280;61460;41.158;-73.238;2022-08-04T11:36:59;100939.78;;;25.99;45.70
73245;BME280;61460;41.158;-73.238;2022-08-04T11:39:27;100935.88;;;25.91;47.65
73245;BME280;61460;41.158;-73.238;2022-08-04T11:42:00;100938.74;;;25.83;46.30
73245;BME280;61460;41.158;-73.238;2022-08-04T11:44:30;100940.64;;;25.50;44.27
73245;BME280;61460;41.158;-73.238;2022-08-04T11:46:59;100943.31;;;25.43;44.37
73245;BME280;61460;41.158;-73.238;2022-08-04T11:49:31;100946.72;;;25.45;46.84
73245;BME280;61460;41.158;-73.238;2022-08-04T11:51:57;100951.65;;;25.67;46.50
73245;BME280;61460;41.158;-73.238;2022-08-04T11:54:26;100951.67;;;25.90;45.97
73245;BME280;61460;41.158;-73.238;2022-08-04T11:56:56;100948.89;;;26.04;45.73
73245;BME280;61460;41.158;-73.238;2022-08-04T11:59:28;100950.35;;;26.02;46.87
73245;BME280;61460;41.158;-73.238;2022-08-04T12:02:14;100955.53;;;25.92;46.78
73245;BME280;61460;41.158;-73.238;2022-08-04T12:04:36;100958.42;;;25.67;44.48
73245;BME280;61460;41.158;-73.238;2022-08-04T12:07:05;100964.42;;;25.42;43.57
73245;BME280;61460;41.158;-73.238;2022-08-04T12:09:38;100961.01;;;25.48;46.79
73245;BME280;61460;41.158;-73.238;2022-08-04T12:12:07;100962.55;;;25.72;46.48
73245;BME280;61460;41.158;-73.238;2022-08-04T12:14:40;100962.15;;;25.71;46.61
73245;BME280;61460;41.158;-73.238;2022-08-04T12:17:02;100961.02;;;26.01;45.92
73245;BME280;61460;41.158;-73.238;2022-08-04T12:19:36;100952.87;;;26.11;45.94
73245;BME280;61460;41.158;-73.238;2022-08-04T12:22:07;100951.69;;;25.98;47.65
73245;BME280;61460;41.158;-73.238;2022-08-04T12:24:45;100950.22;;;25.72;45.75
73245;BME280;61460;41.158;-73.238;2022-08-04T12:27:10;100947.00;;;25.52;44.13
73245;BME280;61460;41.158;-73.238;2022-08-04T12:29:35;100947.35;;;25.56;47.43
73245;BME280;61460;41.158;-73.238;2022-08-04T12:32:16;100950.87;;;25.46;46.22
73245;BME280;61460;41.158;-73.238;2022-08-04T12:34:40;100949.18;;;25.27;44.43
73245;BME280;61460;41.158;-73.238;2022-08-04T12:37:12;100954.14;;;25.32;44.62
73245;BME280;61460;41.158;-73.238;2022-08-04T12:39:37;100948.51;;;25.34;47.17
73245;BME280;61460;41.158;-73.238;2022-08-04T12:42:12;100953.81;;;25.62;46.73
73245;BME280;61460;41.158;-73.238;2022-08-04T12:44:38;100949.59;;;25.75;46.43
73245;BME280;61460;41.158;-73.238;2022-08-04T12:47:09;100948.70;;;25.98;45.91
73245;BME280;61460;41.158;-73.238;2022-08-04T12:49:41;100947.96;;;25.93;47.50
73245;BME280;61460;41.158;-73.238;2022-08-04T12:52:10;100950.21;;;25.88;47.12
73245;BME280;61460;41.158;-73.238;2022-08-04T12:54:40;100947.42;;;25.57;45.43
73245;BME280;61460;41.158;-73.238;2022-08-04T12:57:11;100943.44;;;25.46;45.05
73245;BME280;61460;41.158;-73.238;2022-08-04T12:59:43;100940.87;;;25.51;48.02
73245;BME280;61460;41.158;-73.238;2022-08-04T13:02:15;100937.91;;;25.33;46.08
73245;BME280;61460;41.158;-73.238;2022-08-04T13:04:43;100934.67;;;25.22;44.28
73245;BME280;61460;41.158;-73.238;2022-08-04T13:07:18;100937.35;;;25.28;46.04
73245;BME280;61460;41.158;-73.238;2022-08-04T13:09:44;100939.38;;;25.34;47.29
73245;BME280;61460;41.158;-73.238;2022-08-04T13:12:15;100937.01;;;25.56;46.89
73245;BME280;61460;41.158;-73.238;2022-08-04T13:14:48;100939.57;;;25.77;46.46
73245;BME280;61460;41.158;-73.238;2022-08-04T13:17:15;100933.97;;;25.95;46.12
73245;BME280;61460;41.158;-73.238;2022-08-04T13:19:46;100933.83;;;25.91;48.63
73245;BME280;61460;41.158;-73.238;2022-08-04T13:22:23;100930.94;;;25.76;46.95
73245;BME280;61460;41.158;-73.238;2022-08-04T13:24:49;100930.16;;;25.56;45.25
73245;BME280;61460;41.158;-73.238;2022-08-04T13:27:18;100931.58;;;25.48;46.78
73245;BME280;61460;41.158;-73.238;2022-08-04T13:29:50;100924.78;;;25.51;47.68
73245;BME280;61460;41.158;-73.238;2022-08-04T13:32:20;100924.89;;;25.28;46.02
73245;BME280;61460;41.158;-73.238;2022-08-04T13:34:52;100928.73;;;25.17;44.42
73245;BME280;61460;41.158;-73.238;2022-08-04T13:37:24;100927.56;;;25.24;47.64
73245;BME280;61460;41.158;-73.238;2022-08-04T13:39:50;100924.65;;;25.19;46.64